East Bangor, Pennsylvania
Current Conditions -  °F | °C
As of 3:51 AM on Friday 24 Oct 2014 (Local Time) from KABE Reporting Station
Overcast Overcast  
Wind Chill: 54°   Ceiling: 2600
Heat Index: 54°   Visibility: 10mi
Dew Point: 43°   Wind: 15mph
Humidity: 66%   Direction: 330°NNW
Pressure: 29.84"   Gusts: 24mph
Location:  40.8463°N, 75.1731°W
Report Text: KABE 240751Z 33013G21KT 10SM OVC026 12/06 A2984 RMK AO2 SLP104 T01220061
Loading
Personal Weather Stations






























Interactive Weather Map New forecast layout! Learn more

10-Day Weather Forecast

Advertisements
Track Severe Weather on mobile